createdAt,value
2018-11-13T00:02:31.364Z,7.87
2018-11-13T00:07:11.604Z,7.47
2018-11-13T00:11:51.622Z,7.53
2018-11-13T00:16:31.798Z,8.08
2018-11-13T00:21:11.965Z,8.28
2018-11-13T00:25:52.444Z,8.20
2018-11-13T00:30:33.021Z,8.75
2018-11-13T00:35:14.828Z,7.75
2018-11-13T00:39:55.585Z,7.47
2018-11-13T00:44:35.565Z,7.45
2018-11-13T00:49:17.186Z,10.28
2018-11-13T00:53:57.604Z,9.03
2018-11-13T00:58:38.689Z,8.48
2018-11-13T01:03:18.841Z,9.68
2018-11-13T01:07:58.708Z,8.58
2018-11-13T01:12:38.534Z,8.13
2018-11-13T01:17:18.711Z,8.83
2018-11-13T01:21:58.557Z,8.08
2018-11-13T01:26:39.139Z,22.73
2018-11-13T01:31:18.987Z,9.43
2018-11-13T01:35:58.982Z,8.90
2018-11-13T01:40:39.360Z,9.40
2018-11-13T01:45:20.046Z,8.05
2018-11-13T01:49:59.701Z,8.60
2018-11-13T01:54:39.997Z,9.13
2018-11-13T01:59:20.089Z,8.58
2018-11-13T02:04:00.681Z,9.48
2018-11-13T02:08:40.467Z,9.08
2018-11-13T02:13:20.864Z,8.95
2018-11-13T02:18:02.353Z,8.83
2018-11-13T02:22:43.283Z,10.23
2018-11-13T02:27:24.596Z,13.05
2018-11-13T02:32:04.497Z,9.40
2018-11-13T02:36:44.875Z,11.22
2018-11-13T02:41:25.222Z,9.13
2018-11-13T02:46:05.250Z,8.88
2018-11-13T02:50:45.193Z,8.35
2018-11-13T02:55:25.355Z,7.55
2018-11-13T03:00:07.833Z,10.05
2018-11-13T03:04:47.586Z,9.75
2018-11-13T03:09:27.404Z,5.40
2018-11-13T03:14:07.509Z,4.03
2018-11-13T03:18:47.449Z,2.85
2018-11-13T03:23:27.225Z,1.90
2018-11-13T03:28:07.023Z,1.82
2018-11-13T03:32:46.829Z,1.60
2018-11-13T03:37:27.312Z,1.62
2018-11-13T03:42:07.273Z,1.40
2018-11-13T03:46:48.542Z,2.17
2018-11-13T03:51:28.557Z,1.52
2018-11-13T03:56:09.088Z,1.50
2018-11-13T04:00:49.950Z,1.40
2018-11-13T04:05:30.785Z,1.30
2018-11-13T04:10:12.730Z,1.40
2018-11-13T04:14:53.330Z,1.60
2018-11-13T04:19:33.321Z,1.75
2018-11-13T04:24:13.498Z,1.70
2018-11-13T04:28:54.089Z,1.67
2018-11-13T04:33:34.666Z,1.98
2018-11-13T04:38:14.600Z,1.80
2018-11-13T04:42:55.156Z,1.62
2018-11-13T04:47:35.113Z,1.50
2018-11-13T04:52:15.984Z,1.30
2018-11-13T04:56:55.884Z,1.10
2018-11-13T05:01:35.990Z,1.20
2018-11-13T05:06:17.200Z,1.10
2018-11-13T05:10:57.453Z,1.20
2018-11-13T05:15:37.433Z,1.07
2018-11-13T05:20:18.035Z,1.90
2018-11-13T05:24:57.929Z,1.60
2018-11-13T05:29:37.832Z,1.62
2018-11-13T05:34:18.405Z,1.40
2018-11-13T05:38:58.357Z,1.65
2018-11-13T05:43:38.622Z,1.40
2018-11-13T05:48:19.528Z,1.77
2018-11-13T05:52:59.725Z,4.03
2018-11-13T05:57:40.781Z,1.87
2018-11-13T06:02:20.797Z,1.98
2018-11-13T06:07:01.432Z,1.60
2018-11-13T06:11:41.368Z,1.60
2018-11-13T06:16:21.373Z,1.60
2018-11-13T06:21:01.138Z,1.30
2018-11-13T06:25:41.098Z,1.50
2018-11-13T06:30:22.577Z,1.30
2018-11-13T06:35:02.460Z,1.12
2018-11-13T06:39:42.223Z,1.40
2018-11-13T06:44:22.437Z,1.57
2018-11-13T06:49:02.391Z,2.15
2018-11-13T06:53:54.414Z,24.75
2018-11-13T06:58:34.316Z,16.48
2018-11-13T07:03:15.072Z,10.32
2018-11-13T07:07:55.744Z,9.08
2018-11-13T07:12:35.337Z,6.65
2018-11-13T07:17:15.681Z,4.92
2018-11-13T07:21:55.740Z,3.58
2018-11-13T07:26:35.405Z,2.90
2018-11-13T07:31:15.334Z,2.50
2018-11-13T07:35:55.915Z,3.08
2018-11-13T07:40:35.918Z,3.47
2018-11-13T07:45:16.256Z,3.17
2018-11-13T07:49:56.561Z,8.83
2018-11-13T07:54:37.881Z,4.20
2018-11-13T07:59:17.696Z,3.60
2018-11-13T08:03:57.680Z,3.92
2018-11-13T08:08:38.280Z,3.58
2018-11-13T08:13:18.140Z,2.42
2018-11-13T08:17:57.908Z,2.10
2018-11-13T08:22:37.928Z,2.00
2018-11-13T08:27:17.768Z,4.40
2018-11-13T08:31:58.201Z,2.05
2018-11-13T08:36:38.113Z,2.40
2018-11-13T08:41:17.713Z,2.08
2018-11-13T08:45:57.416Z,3.08
2018-11-13T08:50:37.572Z,2.87
2018-11-13T08:55:17.793Z,2.70
2018-11-13T08:59:57.867Z,2.30
2018-11-13T09:04:38.848Z,1.92
2018-11-13T09:09:19.940Z,1.90
2018-11-13T09:14:00.086Z,1.60
2018-11-13T09:18:39.882Z,1.42
2018-11-13T09:23:19.656Z,1.40
2018-11-13T09:28:00.238Z,1.90
2018-11-13T09:32:40.841Z,1.60
2018-11-13T09:37:21.108Z,1.42
2018-11-13T09:42:04.101Z,1.50
2018-11-13T09:46:46.131Z,2.10
2018-11-13T09:51:26.654Z,1.62
2018-11-13T09:56:06.773Z,1.57
2018-11-13T10:00:48.892Z,1.80
2018-11-13T10:05:29.023Z,2.47
2018-11-13T10:10:10.877Z,2.20
2018-11-13T10:14:52.896Z,2.33
2018-11-13T10:19:32.800Z,1.90
2018-11-13T10:24:12.736Z,1.90
2018-11-13T10:28:52.771Z,2.20
2018-11-13T10:33:33.091Z,1.90
2018-11-13T10:38:13.824Z,2.10
2018-11-13T10:42:54.588Z,2.20
2018-11-13T10:47:34.932Z,1.98
2018-11-13T10:52:15.284Z,1.98
2018-11-13T10:56:56.303Z,2.33
2018-11-13T11:01:42.636Z,2.10
2018-11-13T11:06:24.655Z,1.50
2018-11-13T11:11:05.076Z,2.00
2018-11-13T11:15:46.000Z,1.92
2018-11-13T11:20:25.696Z,1.92
2018-11-13T11:25:07.809Z,2.10
2018-11-13T11:29:47.809Z,1.75
2018-11-13T11:34:28.585Z,1.90
2018-11-13T11:39:10.427Z,2.12
2018-11-13T11:43:50.134Z,1.75
2018-11-13T11:48:30.742Z,1.70
2018-11-13T11:53:11.229Z,1.70
2018-11-13T11:57:51.596Z,1.50
2018-11-13T12:02:31.517Z,1.90
2018-11-13T12:07:12.509Z,1.85
2018-11-13T12:11:52.964Z,1.82
2018-11-13T12:16:32.856Z,1.90
2018-11-13T12:21:12.836Z,1.80
2018-11-13T12:25:53.310Z,1.95
2018-11-13T12:30:34.280Z,1.90
2018-11-13T12:35:15.136Z,2.10
2018-11-13T12:39:54.863Z,1.87
2018-11-13T12:44:35.113Z,2.10
2018-11-13T12:49:15.582Z,1.92
2018-11-13T12:53:56.061Z,1.60
2018-11-13T12:58:37.065Z,1.70
2018-11-13T13:03:17.327Z,1.75
2018-11-13T13:07:56.970Z,1.67
2018-11-13T13:12:36.893Z,2.10
2018-11-13T13:17:16.889Z,1.80
2018-11-13T13:21:56.892Z,1.60
2018-11-13T13:26:37.574Z,1.95
2018-11-13T13:31:18.609Z,1.70
2018-11-13T13:36:01.538Z,1.95
2018-11-13T13:40:42.394Z,1.60
2018-11-13T13:45:22.550Z,2.60
2018-11-13T13:50:03.145Z,9.33
2018-11-13T13:54:43.261Z,2.02
2018-11-13T13:59:23.153Z,1.80
2018-11-13T14:04:03.644Z,2.00
2018-11-13T14:08:44.097Z,2.15
2018-11-13T14:13:24.741Z,2.10
2018-11-13T14:18:08.054Z,2.00
2018-11-13T14:22:49.231Z,2.10
2018-11-13T14:27:30.061Z,2.70
2018-11-13T14:32:11.035Z,2.47
2018-11-13T14:36:51.192Z,3.40
2018-11-13T14:41:34.454Z,3.17
2018-11-13T14:46:15.333Z,2.60
2018-11-13T14:50:55.764Z,4.42
2018-11-13T14:55:37.098Z,3.50
2018-11-13T15:00:19.728Z,2.80
2018-11-13T15:04:59.389Z,2.42
2018-11-13T15:09:39.885Z,2.10
2018-11-13T15:14:22.263Z,4.67
2018-11-13T15:19:01.997Z,4.37
2018-11-13T15:23:42.117Z,5.03
2018-11-13T15:28:22.276Z,4.55
2018-11-13T15:33:05.816Z,4.95
2018-11-13T15:37:45.868Z,3.77
2018-11-13T15:42:25.813Z,4.53
2018-11-13T15:47:05.916Z,4.40
2018-11-13T15:51:46.522Z,3.30
2018-11-13T15:56:26.325Z,4.30
2018-11-13T16:01:07.365Z,5.58
2018-11-13T16:05:49.752Z,9.18
2018-11-13T16:10:30.167Z,9.73
2018-11-13T16:15:10.278Z,7.60
2018-11-13T16:19:51.121Z,5.58
2018-11-13T16:24:30.936Z,11.12
2018-11-13T16:29:11.404Z,14.05
2018-11-13T16:33:51.733Z,22.55
2018-11-13T16:38:31.786Z,16.25
2018-11-13T16:43:12.362Z,21.62
2018-11-13T16:47:52.647Z,57.30
2018-11-13T16:52:33.546Z,20.43
2018-11-13T16:57:16.296Z,8.68
2018-11-13T17:01:56.957Z,11.88
2018-11-13T17:06:37.424Z,13.68
2018-11-13T17:11:18.580Z,13.53
2018-11-13T17:15:59.187Z,13.40
2018-11-13T17:20:39.521Z,44.67
2018-11-13T17:25:20.781Z,23.73
2018-11-13T17:30:01.668Z,15.87
2018-11-13T17:34:41.702Z,10.50
2018-11-13T17:39:21.996Z,15.77
2018-11-13T17:44:01.995Z,14.73
2018-11-13T17:48:41.825Z,12.13
2018-11-13T17:53:25.433Z,14.90
2018-11-13T17:58:09.495Z,10.27
2018-11-13T18:02:50.190Z,11.10
2018-11-13T18:07:30.115Z,14.00
2018-11-13T18:12:11.492Z,19.40
2018-11-13T18:16:52.341Z,20.93
2018-11-13T18:21:32.316Z,17.13
2018-11-13T18:26:14.244Z,20.47
2018-11-13T18:30:55.515Z,15.97
2018-11-13T18:35:37.041Z,21.23
2018-11-13T18:40:18.228Z,41.83
2018-11-13T18:44:59.419Z,83.37
2018-11-13T18:49:39.298Z,85.03
2018-11-13T18:54:19.093Z,86.80
2018-11-13T18:59:00.111Z,52.53
2018-11-13T19:03:40.297Z,85.73
2018-11-13T19:08:20.389Z,132.83
2018-11-13T19:13:01.644Z,51.10
2018-11-13T19:17:41.628Z,143.90
2018-11-13T19:22:21.649Z,128.47
2018-11-13T19:27:02.176Z,138.57
2018-11-13T19:31:42.121Z,150.03
2018-11-13T19:36:24.671Z,103.83
2018-11-13T19:41:05.401Z,84.37
2018-11-13T19:45:45.349Z,93.53
2018-11-13T19:50:28.577Z,44.07
2018-11-13T19:55:10.265Z,48.83
2018-11-13T19:59:51.005Z,52.27
2018-11-13T20:04:33.197Z,86.20
2018-11-13T20:09:13.213Z,81.67
2018-11-13T20:13:54.408Z,44.77
2018-11-13T20:18:34.672Z,24.87
2018-11-13T20:23:16.260Z,42.00
2018-11-13T20:27:57.699Z,35.07
2018-11-13T20:32:37.559Z,52.23
2018-11-13T20:37:21.480Z,35.67
2018-11-13T20:42:01.598Z,31.77
2018-11-13T20:46:41.749Z,58.23
2018-11-13T20:51:23.464Z,36.17
2018-11-13T20:56:04.134Z,48.80
2018-11-13T21:00:44.141Z,50.83
2018-11-13T21:05:26.120Z,27.67
2018-11-13T21:10:08.202Z,17.53
2018-11-13T21:14:49.381Z,18.30
2018-11-13T21:19:32.685Z,24.13
2018-11-13T21:24:12.446Z,28.63
2018-11-13T21:28:53.184Z,69.93
2018-11-13T21:33:36.761Z,99.93
2018-11-13T21:38:19.676Z,87.30
2018-11-13T21:43:01.649Z,50.70
2018-11-13T21:47:42.891Z,46.00
2018-11-13T21:52:23.092Z,66.17
2018-11-13T21:57:04.008Z,21.33
2018-11-13T22:01:44.096Z,30.33
2018-11-13T22:06:25.002Z,21.33
2018-11-13T22:11:05.397Z,15.93
2018-11-13T22:15:45.220Z,12.87
2018-11-13T22:20:26.185Z,14.97
2018-11-13T22:25:08.413Z,10.70
2018-11-13T22:29:48.837Z,11.47
2018-11-13T22:34:29.171Z,23.73
2018-11-13T22:39:09.323Z,23.30
2018-11-13T22:43:49.116Z,9.70
2018-11-13T22:48:28.914Z,8.27
2018-11-13T22:53:09.641Z,8.80
2018-11-13T22:57:52.285Z,12.67
2018-11-13T23:02:31.861Z,14.83
2018-11-13T23:07:12.477Z,14.60
2018-11-13T23:11:52.431Z,18.10
2018-11-13T23:16:32.999Z,14.23
2018-11-13T23:21:12.956Z,20.40
2018-11-13T23:25:54.430Z,18.13
2018-11-13T23:30:34.426Z,59.67
2018-11-13T23:35:14.733Z,29.27
2018-11-13T23:39:54.517Z,38.30
2018-11-13T23:44:34.957Z,29.93
2018-11-13T23:49:14.874Z,11.43
2018-11-13T23:53:54.969Z,11.60
2018-11-13T23:58:35.749Z,25.73
